sensor_id;sensor_type;location;lat;lon;timestamp;temperature;humidity
73360;DHT22;63092;43.582;19.528;2022-12-29T00:02:19;5.50;99.90
73360;DHT22;63092;43.582;19.528;2022-12-29T00:04:44;5.40;99.90
73360;DHT22;63092;43.582;19.528;2022-12-29T00:07:10;5.50;99.90
73360;DHT22;63092;43.582;19.528;2022-12-29T00:09:36;5.60;99.90
73360;DHT22;63092;43.582;19.528;2022-12-29T00:12:03;5.60;99.90
73360;DHT22;63092;43.582;19.528;2022-12-29T00:14:29;5.60;99.90
73360;DHT22;63092;43.582;19.528;2022-12-29T00:17:13;5.70;99.90
73360;DHT22;63092;43.582;19.528;2022-12-29T00:19:39;5.70;99.90
73360;DHT22;63092;43.582;19.528;2022-12-29T00:22:24;5.70;99.90
73360;DHT22;63092;43.582;19.528;2022-12-29T00:25:10;5.70;99.90
73360;DHT22;63092;43.582;19.528;2022-12-29T00:27:55;5.80;99.90
73360;DHT22;63092;43.582;19.528;2022-12-29T00:30:39;5.80;99.90
73360;DHT22;63092;43.582;19.528;2022-12-29T00:33:30;5.70;99.90
73360;DHT22;63092;43.582;19.528;2022-12-29T00:36:28;5.80;99.90
73360;DHT22;63092;43.582;19.528;2022-12-29T00:39:02;5.80;99.90
73360;DHT22;63092;43.582;19.528;2022-12-29T00:41:48;5.80;99.90
73360;DHT22;63092;43.582;19.528;2022-12-29T00:44:32;5.80;99.90
73360;DHT22;63092;43.582;19.528;2022-12-29T00:46:58;5.80;99.90
73360;DHT22;63092;43.582;19.528;2022-12-29T00:49:28;5.80;99.90
73360;DHT22;63092;43.582;19.528;2022-12-29T00:52:04;5.90;99.90
73360;DHT22;63092;43.582;19.528;2022-12-29T00:54:33;5.80;99.90
73360;DHT22;63092;43.582;19.528;2022-12-29T00:57:00;5.80;99.90
73360;DHT22;63092;43.582;19.528;2022-12-29T00:59:26;5.80;99.90
73360;DHT22;63092;43.582;19.528;2022-12-29T01:01:53;5.90;99.90
73360;DHT22;63092;43.582;19.528;2022-12-29T01:04:21;5.90;99.90
73360;DHT22;63092;43.582;19.528;2022-12-29T01:06:48;5.90;99.90
73360;DHT22;63092;43.582;19.528;2022-12-29T01:09:14;5.80;99.90
73360;DHT22;63092;43.582;19.528;2022-12-29T01:11:58;5.90;99.90
73360;DHT22;63092;43.582;19.528;2022-12-29T01:14:24;5.90;99.90
73360;DHT22;63092;43.582;19.528;2022-12-29T01:16:50;5.90;99.90
73360;DHT22;63092;43.582;19.528;2022-12-29T01:19:17;5.90;99.90
73360;DHT22;63092;43.582;19.528;2022-12-29T01:21:42;5.90;99.90
73360;DHT22;63092;43.582;19.528;2022-12-29T01:24:08;5.90;99.90
73360;DHT22;63092;43.582;19.528;2022-12-29T01:26:34;5.80;99.90
73360;DHT22;63092;43.582;19.528;2022-12-29T01:29:00;5.70;99.90
73360;DHT22;63092;43.582;19.528;2022-12-29T01:31:25;5.80;99.90
73360;DHT22;63092;43.582;19.528;2022-12-29T01:33:51;5.70;99.90
73360;DHT22;63092;43.582;19.528;2022-12-29T01:36:17;5.70;99.90
73360;DHT22;63092;43.582;19.528;2022-12-29T01:38:44;5.60;99.90
73360;DHT22;63092;43.582;19.528;2022-12-29T01:41:11;5.50;99.90
73360;DHT22;63092;43.582;19.528;2022-12-29T01:43:49;5.40;99.90
73360;DHT22;63092;43.582;19.528;2022-12-29T01:46:37;5.50;99.90
73360;DHT22;63092;43.582;19.528;2022-12-29T01:49:24;5.50;99.90
73360;DHT22;63092;43.582;19.528;2022-12-29T01:51:57;5.50;99.90
73360;DHT22;63092;43.582;19.528;2022-12-29T01:54:43;5.40;99.90
73360;DHT22;63092;43.582;19.528;2022-12-29T01:57:14;5.40;99.90
73360;DHT22;63092;43.582;19.528;2022-12-29T01:59:50;5.40;99.90
73360;DHT22;63092;43.582;19.528;2022-12-29T02:02:18;5.60;99.90
73360;DHT22;63092;43.582;19.528;2022-12-29T02:04:44;5.60;99.90
73360;DHT22;63092;43.582;19.528;2022-12-29T02:07:19;5.70;99.90
73360;DHT22;63092;43.582;19.528;2022-12-29T02:09:49;5.80;99.90
73360;DHT22;63092;43.582;19.528;2022-12-29T02:12:17;5.80;99.90
73360;DHT22;63092;43.582;19.528;2022-12-29T02:14:44;5.90;99.90
73360;DHT22;63092;43.582;19.528;2022-12-29T02:18:12;5.70;99.90
73360;DHT22;63092;43.582;19.528;2022-12-29T02:23:13;5.80;99.90
73360;DHT22;63092;43.582;19.528;2022-12-29T02:31:07;5.90;99.90
73360;DHT22;63092;43.582;19.528;2022-12-29T02:45:13;5.90;99.90
73360;DHT22;63092;43.582;19.528;2022-12-29T02:53:02;5.80;99.90
73360;DHT22;63092;43.582;19.528;2022-12-29T02:55:30;5.90;99.90
73360;DHT22;63092;43.582;19.528;2022-12-29T02:58:24;5.90;99.90
73360;DHT22;63092;43.582;19.528;2022-12-29T03:07:09;5.90;99.90
73360;DHT22;63092;43.582;19.528;2022-12-29T03:12:34;5.90;99.90
73360;DHT22;63092;43.582;19.528;2022-12-29T03:15:28;6.00;99.90
73360;DHT22;63092;43.582;19.528;2022-12-29T03:18:21;6.00;99.90
73360;DHT22;63092;43.582;19.528;2022-12-29T03:21:05;6.00;99.90
73360;DHT22;63092;43.582;19.528;2022-12-29T03:23:33;5.90;99.90
73360;DHT22;63092;43.582;19.528;2022-12-29T03:26:03;6.00;99.90
73360;DHT22;63092;43.582;19.528;2022-12-29T03:28:36;5.90;99.90
73360;DHT22;63092;43.582;19.528;2022-12-29T03:31:04;5.90;99.90
73360;DHT22;63092;43.582;19.528;2022-12-29T03:33:31;5.90;99.90
73360;DHT22;63092;43.582;19.528;2022-12-29T03:36:00;6.00;99.90
73360;DHT22;63092;43.582;19.528;2022-12-29T03:38:51;6.00;99.90
73360;DHT22;63092;43.582;19.528;2022-12-29T03:41:23;6.00;99.90
73360;DHT22;63092;43.582;19.528;2022-12-29T03:43:51;6.10;99.90
73360;DHT22;63092;43.582;19.528;2022-12-29T03:46:17;6.20;99.90
73360;DHT22;63092;43.582;19.528;2022-12-29T03:48:42;6.20;99.90
73360;DHT22;63092;43.582;19.528;2022-12-29T03:51:08;6.10;99.90
73360;DHT22;63092;43.582;19.528;2022-12-29T03:53:34;6.10;99.90
73360;DHT22;63092;43.582;19.528;2022-12-29T03:55:59;6.20;99.90
73360;DHT22;63092;43.582;19.528;2022-12-29T03:58:25;6.00;99.90
73360;DHT22;63092;43.582;19.528;2022-12-29T04:00:50;6.10;99.90
73360;DHT22;63092;43.582;19.528;2022-12-29T04:03:16;6.10;99.90
73360;DHT22;63092;43.582;19.528;2022-12-29T04:05:42;6.20;99.90
73360;DHT22;63092;43.582;19.528;2022-12-29T04:08:07;6.20;99.90
73360;DHT22;63092;43.582;19.528;2022-12-29T04:10:33;6.10;99.90
73360;DHT22;63092;43.582;19.528;2022-12-29T04:12:59;6.00;99.90
73360;DHT22;63092;43.582;19.528;2022-12-29T04:15:25;6.10;99.90
73360;DHT22;63092;43.582;19.528;2022-12-29T04:17:51;6.10;99.90
73360;DHT22;63092;43.582;19.528;2022-12-29T04:20:17;6.10;99.90
73360;DHT22;63092;43.582;19.528;2022-12-29T04:23:02;5.90;99.90
73360;DHT22;63092;43.582;19.528;2022-12-29T04:25:29;6.00;99.90
73360;DHT22;63092;43.582;19.528;2022-12-29T04:27:55;5.80;99.90
73360;DHT22;63092;43.582;19.528;2022-12-29T04:30:21;5.80;99.90
73360;DHT22;63092;43.582;19.528;2022-12-29T04:32:46;5.80;99.90
73360;DHT22;63092;43.582;19.528;2022-12-29T04:35:12;5.50;99.90
73360;DHT22;63092;43.582;19.528;2022-12-29T04:37:38;5.60;99.90
73360;DHT22;63092;43.582;19.528;2022-12-29T04:40:04;5.70;99.90
73360;DHT22;63092;43.582;19.528;2022-12-29T04:42:29;5.80;99.90
73360;DHT22;63092;43.582;19.528;2022-12-29T04:44:55;5.80;99.90
73360;DHT22;63092;43.582;19.528;2022-12-29T04:47:21;5.70;99.90
73360;DHT22;63092;43.582;19.528;2022-12-29T04:49:46;5.70;99.90
73360;DHT22;63092;43.582;19.528;2022-12-29T04:52:12;5.60;99.90
73360;DHT22;63092;43.582;19.528;2022-12-29T04:54:38;5.60;99.90
73360;DHT22;63092;43.582;19.528;2022-12-29T04:57:03;5.50;99.90
73360;DHT22;63092;43.582;19.528;2022-12-29T04:59:29;5.60;99.90
73360;DHT22;63092;43.582;19.528;2022-12-29T05:01:55;5.40;99.90
73360;DHT22;63092;43.582;19.528;2022-12-29T05:04:20;5.50;99.90
73360;DHT22;63092;43.582;19.528;2022-12-29T05:06:46;5.40;99.90
73360;DHT22;63092;43.582;19.528;2022-12-29T05:09:11;5.50;99.90
73360;DHT22;63092;43.582;19.528;2022-12-29T05:11:37;5.50;99.90
73360;DHT22;63092;43.582;19.528;2022-12-29T05:14:03;5.50;99.90
73360;DHT22;63092;43.582;19.528;2022-12-29T05:16:28;5.50;99.90
73360;DHT22;63092;43.582;19.528;2022-12-29T05:18:54;5.60;99.90
73360;DHT22;63092;43.582;19.528;2022-12-29T05:21:20;5.60;99.90
73360;DHT22;63092;43.582;19.528;2022-12-29T05:23:45;5.70;99.90
73360;DHT22;63092;43.582;19.528;2022-12-29T05:26:11;5.70;99.90
73360;DHT22;63092;43.582;19.528;2022-12-29T05:28:36;5.80;99.90
73360;DHT22;63092;43.582;19.528;2022-12-29T05:31:02;5.80;99.90
73360;DHT22;63092;43.582;19.528;2022-12-29T05:33:28;5.70;99.90
73360;DHT22;63092;43.582;19.528;2022-12-29T05:35:53;5.70;99.90
73360;DHT22;63092;43.582;19.528;2022-12-29T05:38:19;5.70;99.90
73360;DHT22;63092;43.582;19.528;2022-12-29T05:40:45;5.80;99.90
73360;DHT22;63092;43.582;19.528;2022-12-29T05:43:10;5.70;99.90
73360;DHT22;63092;43.582;19.528;2022-12-29T05:45:36;5.70;99.90
73360;DHT22;63092;43.582;19.528;2022-12-29T05:48:02;5.70;99.90
73360;DHT22;63092;43.582;19.528;2022-12-29T05:50:28;5.80;99.90
73360;DHT22;63092;43.582;19.528;2022-12-29T05:52:54;5.80;99.90
73360;DHT22;63092;43.582;19.528;2022-12-29T05:55:19;5.90;99.90
73360;DHT22;63092;43.582;19.528;2022-12-29T05:57:45;5.90;99.90
73360;DHT22;63092;43.582;19.528;2022-12-29T06:00:11;5.90;99.90
73360;DHT22;63092;43.582;19.528;2022-12-29T06:02:37;5.90;99.90
73360;DHT22;63092;43.582;19.528;2022-12-29T06:05:03;5.90;99.90
73360;DHT22;63092;43.582;19.528;2022-12-29T06:07:28;5.90;99.90
73360;DHT22;63092;43.582;19.528;2022-12-29T06:09:54;5.90;99.90
73360;DHT22;63092;43.582;19.528;2022-12-29T06:12:20;5.90;99.90
73360;DHT22;63092;43.582;19.528;2022-12-29T06:14:45;5.90;99.90
73360;DHT22;63092;43.582;19.528;2022-12-29T06:17:11;5.90;99.90
73360;DHT22;63092;43.582;19.528;2022-12-29T06:19:36;5.90;99.90
73360;DHT22;63092;43.582;19.528;2022-12-29T06:22:02;5.90;99.90
73360;DHT22;63092;43.582;19.528;2022-12-29T06:24:28;6.00;99.90
73360;DHT22;63092;43.582;19.528;2022-12-29T06:26:54;6.00;99.90
73360;DHT22;63092;43.582;19.528;2022-12-29T06:29:20;6.00;99.90
73360;DHT22;63092;43.582;19.528;2022-12-29T06:31:46;6.00;99.90
73360;DHT22;63092;43.582;19.528;2022-12-29T06:34:12;6.00;99.90
73360;DHT22;63092;43.582;19.528;2022-12-29T06:36:38;6.00;99.90
73360;DHT22;63092;43.582;19.528;2022-12-29T06:39:05;5.90;99.90
73360;DHT22;63092;43.582;19.528;2022-12-29T06:41:30;6.00;99.90
73360;DHT22;63092;43.582;19.528;2022-12-29T06:43:57;6.00;99.90
73360;DHT22;63092;43.582;19.528;2022-12-29T06:46:22;5.90;99.90
73360;DHT22;63092;43.582;19.528;2022-12-29T06:48:48;5.90;99.90
73360;DHT22;63092;43.582;19.528;2022-12-29T06:51:14;5.90;99.90
73360;DHT22;63092;43.582;19.528;2022-12-29T06:53:39;5.90;99.90
73360;DHT22;63092;43.582;19.528;2022-12-29T06:56:05;5.80;99.90
73360;DHT22;63092;43.582;19.528;2022-12-29T06:58:31;5.70;99.90
73360;DHT22;63092;43.582;19.528;2022-12-29T07:00:56;5.80;99.90
73360;DHT22;63092;43.582;19.528;2022-12-29T07:03:23;5.90;99.90
73360;DHT22;63092;43.582;19.528;2022-12-29T07:05:48;5.90;99.90
73360;DHT22;63092;43.582;19.528;2022-12-29T07:08:14;5.80;99.90
73360;DHT22;63092;43.582;19.528;2022-12-29T07:10:40;5.90;99.90
73360;DHT22;63092;43.582;19.528;2022-12-29T07:13:05;6.00;99.90
73360;DHT22;63092;43.582;19.528;2022-12-29T07:15:33;6.00;99.90
73360;DHT22;63092;43.582;19.528;2022-12-29T07:17:59;6.00;99.90
73360;DHT22;63092;43.582;19.528;2022-12-29T07:20:25;6.00;99.90
73360;DHT22;63092;43.582;19.528;2022-12-29T07:22:50;6.00;99.90
73360;DHT22;63092;43.582;19.528;2022-12-29T07:25:16;5.90;99.90
73360;DHT22;63092;43.582;19.528;2022-12-29T07:27:42;6.00;99.90
73360;DHT22;63092;43.582;19.528;2022-12-29T07:30:08;6.00;99.90
73360;DHT22;63092;43.582;19.528;2022-12-29T07:32:34;6.10;99.90
73360;DHT22;63092;43.582;19.528;2022-12-29T07:35:00;6.00;99.90
73360;DHT22;63092;43.582;19.528;2022-12-29T07:37:26;6.10;99.90
73360;DHT22;63092;43.582;19.528;2022-12-29T07:39:51;6.00;99.90
73360;DHT22;63092;43.582;19.528;2022-12-29T07:42:17;6.10;99.90
73360;DHT22;63092;43.582;19.528;2022-12-29T07:44:43;6.10;99.90
73360;DHT22;63092;43.582;19.528;2022-12-29T07:47:08;5.90;99.90
73360;DHT22;63092;43.582;19.528;2022-12-29T07:49:34;5.90;99.90
73360;DHT22;63092;43.582;19.528;2022-12-29T07:52:00;5.80;99.90
73360;DHT22;63092;43.582;19.528;2022-12-29T07:54:25;5.80;99.90
73360;DHT22;63092;43.582;19.528;2022-12-29T07:56:51;5.90;99.90
73360;DHT22;63092;43.582;19.528;2022-12-29T07:59:17;5.90;99.90
73360;DHT22;63092;43.582;19.528;2022-12-29T08:01:43;5.90;99.90
73360;DHT22;63092;43.582;19.528;2022-12-29T08:04:09;5.90;99.90
73360;DHT22;63092;43.582;19.528;2022-12-29T08:06:34;6.00;99.90
73360;DHT22;63092;43.582;19.528;2022-12-29T08:09:00;5.90;99.90
73360;DHT22;63092;43.582;19.528;2022-12-29T08:11:27;6.10;99.90
73360;DHT22;63092;43.582;19.528;2022-12-29T08:13:52;6.00;99.90
73360;DHT22;63092;43.582;19.528;2022-12-29T08:16:18;6.10;99.90
73360;DHT22;63092;43.582;19.528;2022-12-29T08:18:44;6.00;99.90
73360;DHT22;63092;43.582;19.528;2022-12-29T08:21:10;6.10;99.90
73360;DHT22;63092;43.582;19.528;2022-12-29T08:23:36;6.20;99.90
73360;DHT22;63092;43.582;19.528;2022-12-29T08:26:04;6.00;99.90
73360;DHT22;63092;43.582;19.528;2022-12-29T08:28:30;6.20;99.90
73360;DHT22;63092;43.582;19.528;2022-12-29T08:31:00;6.30;99.90
73360;DHT22;63092;43.582;19.528;2022-12-29T08:33:27;6.20;99.90
73360;DHT22;63092;43.582;19.528;2022-12-29T08:35:58;6.20;99.90
73360;DHT22;63092;43.582;19.528;2022-12-29T08:38:24;6.20;99.90
73360;DHT22;63092;43.582;19.528;2022-12-29T08:40:51;6.30;99.90
73360;DHT22;63092;43.582;19.528;2022-12-29T08:43:17;6.30;99.90
73360;DHT22;63092;43.582;19.528;2022-12-29T08:45:42;6.40;99.90
73360;DHT22;63092;43.582;19.528;2022-12-29T08:48:08;6.40;99.90
73360;DHT22;63092;43.582;19.528;2022-12-29T08:50:34;6.50;99.90
73360;DHT22;63092;43.582;19.528;2022-12-29T08:52:59;6.60;99.90
73360;DHT22;63092;43.582;19.528;2022-12-29T08:55:25;6.60;99.90
73360;DHT22;63092;43.582;19.528;2022-12-29T08:57:51;6.70;99.90
73360;DHT22;63092;43.582;19.528;2022-12-29T09:00:17;6.80;99.90
73360;DHT22;63092;43.582;19.528;2022-12-29T09:02:43;6.80;99.90
73360;DHT22;63092;43.582;19.528;2022-12-29T09:05:09;6.80;99.90
73360;DHT22;63092;43.582;19.528;2022-12-29T09:07:35;6.60;99.90
73360;DHT22;63092;43.582;19.528;2022-12-29T09:10:01;6.70;99.70
73360;DHT22;63092;43.582;19.528;2022-12-29T09:12:27;6.70;99.90
73360;DHT22;63092;43.582;19.528;2022-12-29T09:14:53;6.80;99.90
73360;DHT22;63092;43.582;19.528;2022-12-29T09:17:18;6.80;99.90
73360;DHT22;63092;43.582;19.528;2022-12-29T09:20:03;6.90;99.90
73360;DHT22;63092;43.582;19.528;2022-12-29T09:22:29;6.90;99.90
73360;DHT22;63092;43.582;19.528;2022-12-29T09:24:54;6.90;99.90
73360;DHT22;63092;43.582;19.528;2022-12-29T09:27:20;6.90;99.90
73360;DHT22;63092;43.582;19.528;2022-12-29T09:29:46;6.80;99.90
73360;DHT22;63092;43.582;19.528;2022-12-29T09:32:11;6.70;99.90
73360;DHT22;63092;43.582;19.528;2022-12-29T09:34:38;6.60;99.90
73360;DHT22;63092;43.582;19.528;2022-12-29T09:37:04;6.50;99.90
73360;DHT22;63092;43.582;19.528;2022-12-29T09:39:30;6.50;99.90
73360;DHT22;63092;43.582;19.528;2022-12-29T09:47:34;6.40;99.90
73360;DHT22;63092;43.582;19.528;2022-12-29T09:55:39;6.40;99.90
73360;DHT22;63092;43.582;19.528;2022-12-29T10:03:49;6.60;99.90
73360;DHT22;63092;43.582;19.528;2022-12-29T10:09:04;6.40;99.90
73360;DHT22;63092;43.582;19.528;2022-12-29T10:17:27;6.80;99.90
73360;DHT22;63092;43.582;19.528;2022-12-29T10:24:50;7.00;99.90
73360;DHT22;63092;43.582;19.528;2022-12-29T10:27:18;7.10;99.80
73360;DHT22;63092;43.582;19.528;2022-12-29T10:30:02;7.10;99.40
73360;DHT22;63092;43.582;19.528;2022-12-29T10:32:45;7.00;99.80
73360;DHT22;63092;43.582;19.528;2022-12-29T10:35:21;7.00;99.60
73360;DHT22;63092;43.582;19.528;2022-12-29T10:40:44;7.10;99.90
73360;DHT22;63092;43.582;19.528;2022-12-29T10:43:25;7.00;99.70
73360;DHT22;63092;43.582;19.528;2022-12-29T10:46:01;7.10;99.80
73360;DHT22;63092;43.582;19.528;2022-12-29T10:48:31;7.10;99.80
73360;DHT22;63092;43.582;19.528;2022-12-29T10:50:58;7.10;99.90
73360;DHT22;63092;43.582;19.528;2022-12-29T10:53:35;7.20;99.80
73360;DHT22;63092;43.582;19.528;2022-12-29T10:56:13;7.10;99.90
73360;DHT22;63092;43.582;19.528;2022-12-29T10:58:41;7.10;99.90
73360;DHT22;63092;43.582;19.528;2022-12-29T11:01:08;7.20;99.90
73360;DHT22;63092;43.582;19.528;2022-12-29T11:04:19;7.30;99.60
73360;DHT22;63092;43.582;19.528;2022-12-29T11:06:26;7.30;99.70
73360;DHT22;63092;43.582;19.528;2022-12-29T11:09:12;7.30;99.90
73360;DHT22;63092;43.582;19.528;2022-12-29T11:11:39;7.20;99.90
73360;DHT22;63092;43.582;19.528;2022-12-29T11:14:18;7.10;99.90
73360;DHT22;63092;43.582;19.528;2022-12-29T11:17:00;7.10;99.80
73360;DHT22;63092;43.582;19.528;2022-12-29T11:19:29;7.10;99.80
73360;DHT22;63092;43.582;19.528;2022-12-29T11:22:22;7.10;99.90
73360;DHT22;63092;43.582;19.528;2022-12-29T11:24:50;7.10;99.90
73360;DHT22;63092;43.582;19.528;2022-12-29T11:27:18;7.10;99.90
73360;DHT22;63092;43.582;19.528;2022-12-29T11:29:46;7.20;99.90
73360;DHT22;63092;43.582;19.528;2022-12-29T11:32:18;7.10;99.90
73360;DHT22;63092;43.582;19.528;2022-12-29T11:34:47;7.20;99.90
73360;DHT22;63092;43.582;19.528;2022-12-29T11:37:25;7.30;99.90
73360;DHT22;63092;43.582;19.528;2022-12-29T11:39:55;7.30;99.90
73360;DHT22;63092;43.582;19.528;2022-12-29T11:42:48;7.20;99.90
73360;DHT22;63092;43.582;19.528;2022-12-29T11:45:20;7.10;99.90
73360;DHT22;63092;43.582;19.528;2022-12-29T11:48:08;7.20;99.90
73360;DHT22;63092;43.582;19.528;2022-12-29T11:50:37;7.20;99.90
73360;DHT22;63092;43.582;19.528;2022-12-29T11:53:46;7.40;99.90
73360;DHT22;63092;43.582;19.528;2022-12-29T11:55:59;7.40;99.90
73360;DHT22;63092;43.582;19.528;2022-12-29T11:58:35;7.50;99.90
73360;DHT22;63092;43.582;19.528;2022-12-29T12:01:36;7.60;99.60
73360;DHT22;63092;43.582;19.528;2022-12-29T12:04:08;7.60;99.80
73360;DHT22;63092;43.582;19.528;2022-12-29T12:06:41;7.80;99.40
73360;DHT22;63092;43.582;19.528;2022-12-29T12:09:18;7.90;99.20
73360;DHT22;63092;43.582;19.528;2022-12-29T12:11:47;8.00;99.00
73360;DHT22;63092;43.582;19.528;2022-12-29T12:17:04;8.10;98.90
73360;DHT22;63092;43.582;19.528;2022-12-29T12:22:19;8.10;98.50
73360;DHT22;63092;43.582;19.528;2022-12-29T12:24:59;8.30;98.30
73360;DHT22;63092;43.582;19.528;2022-12-29T12:27:43;8.40;98.20
73360;DHT22;63092;43.582;19.528;2022-12-29T12:30:20;8.40;97.80
73360;DHT22;63092;43.582;19.528;2022-12-29T12:33:00;8.30;98.40
73360;DHT22;63092;43.582;19.528;2022-12-29T12:52:47;8.70;97.30
73360;DHT22;63092;43.582;19.528;2022-12-29T12:55:52;8.40;97.60
73360;DHT22;63092;43.582;19.528;2022-12-29T12:58:40;8.20;98.40
73360;DHT22;63092;43.582;19.528;2022-12-29T13:01:24;7.90;99.30
73360;DHT22;63092;43.582;19.528;2022-12-29T13:04:08;7.80;99.60
73360;DHT22;63092;43.582;19.528;2022-12-29T13:23:46;7.40;99.90
73360;DHT22;63092;43.582;19.528;2022-12-29T13:26:59;7.40;99.90
73360;DHT22;63092;43.582;19.528;2022-12-29T13:29:23;7.30;99.90
73360;DHT22;63092;43.582;19.528;2022-12-29T13:32:15;7.40;99.90
73360;DHT22;63092;43.582;19.528;2022-12-29T13:37:27;7.20;99.90
73360;DHT22;63092;43.582;19.528;2022-12-29T13:39:59;7.30;99.90
73360;DHT22;63092;43.582;19.528;2022-12-29T13:42:26;7.30;99.90
73360;DHT22;63092;43.582;19.528;2022-12-29T13:45:04;7.30;99.90
73360;DHT22;63092;43.582;19.528;2022-12-29T13:47:42;7.30;99.90
73360;DHT22;63092;43.582;19.528;2022-12-29T13:50:16;7.30;99.90
73360;DHT22;63092;43.582;19.528;2022-12-29T13:52:49;7.30;99.90
73360;DHT22;63092;43.582;19.528;2022-12-29T13:55:35;7.30;99.90
73360;DHT22;63092;43.582;19.528;2022-12-29T14:01:20;7.20;99.90
73360;DHT22;63092;43.582;19.528;2022-12-29T14:03:52;7.20;99.90
73360;DHT22;63092;43.582;19.528;2022-12-29T14:06:32;7.10;99.90
73360;DHT22;63092;43.582;19.528;2022-12-29T14:09:06;7.10;99.90
73360;DHT22;63092;43.582;19.528;2022-12-29T14:11:51;7.20;99.90
73360;DHT22;63092;43.582;19.528;2022-12-29T14:14:23;7.10;99.90
73360;DHT22;63092;43.582;19.528;2022-12-29T14:16:51;7.00;99.90
73360;DHT22;63092;43.582;19.528;2022-12-29T14:19:21;7.00;99.90
73360;DHT22;63092;43.582;19.528;2022-12-29T14:21:54;7.10;99.90
73360;DHT22;63092;43.582;19.528;2022-12-29T14:29:49;7.00;99.90
73360;DHT22;63092;43.582;19.528;2022-12-29T14:34:54;7.10;99.90
73360;DHT22;63092;43.582;19.528;2022-12-29T14:37:40;6.90;99.90
73360;DHT22;63092;43.582;19.528;2022-12-29T14:40:17;7.00;99.90
73360;DHT22;63092;43.582;19.528;2022-12-29T14:42:44;7.00;99.90
73360;DHT22;63092;43.582;19.528;2022-12-29T14:47:43;6.80;99.90
73360;DHT22;63092;43.582;19.528;2022-12-29T14:53:01;6.70;99.90
73360;DHT22;63092;43.582;19.528;2022-12-29T14:55:44;6.60;99.90
73360;DHT22;63092;43.582;19.528;2022-12-29T14:58:20;6.60;99.90
73360;DHT22;63092;43.582;19.528;2022-12-29T15:00:47;6.60;99.90
73360;DHT22;63092;43.582;19.528;2022-12-29T15:03:30;6.60;99.90
73360;DHT22;63092;43.582;19.528;2022-12-29T15:06:15;6.70;99.90
73360;DHT22;63092;43.582;19.528;2022-12-29T15:08:50;6.60;99.90
73360;DHT22;63092;43.582;19.528;2022-12-29T15:11:20;6.50;99.90
73360;DHT22;63092;43.582;19.528;2022-12-29T15:13:46;6.60;99.90
73360;DHT22;63092;43.582;19.528;2022-12-29T15:16:30;6.70;99.90
73360;DHT22;63092;43.582;19.528;2022-12-29T15:18:57;6.70;99.90
73360;DHT22;63092;43.582;19.528;2022-12-29T15:21:26;6.60;99.90
73360;DHT22;63092;43.582;19.528;2022-12-29T15:23:52;6.50;99.90
73360;DHT22;63092;43.582;19.528;2022-12-29T15:26:18;6.40;99.90
73360;DHT22;63092;43.582;19.528;2022-12-29T15:28:49;6.20;99.90
73360;DHT22;63092;43.582;19.528;2022-12-29T15:31:21;6.10;99.90
73360;DHT22;63092;43.582;19.528;2022-12-29T15:33:51;6.20;99.90
73360;DHT22;63092;43.582;19.528;2022-12-29T15:36:28;6.10;99.90
73360;DHT22;63092;43.582;19.528;2022-12-29T15:38:55;6.10;99.90
73360;DHT22;63092;43.582;19.528;2022-12-29T15:46:30;6.00;99.90
73360;DHT22;63092;43.582;19.528;2022-12-29T15:48:56;6.00;99.90
73360;DHT22;63092;43.582;19.528;2022-12-29T15:51:29;6.00;99.90
73360;DHT22;63092;43.582;19.528;2022-12-29T15:53:56;6.00;99.90
73360;DHT22;63092;43.582;19.528;2022-12-29T15:56:22;6.00;99.90
73360;DHT22;63092;43.582;19.528;2022-12-29T15:58:51;6.00;99.90
73360;DHT22;63092;43.582;19.528;2022-12-29T16:01:33;6.10;99.90
73360;DHT22;63092;43.582;19.528;2022-12-29T16:04:09;6.20;99.90
73360;DHT22;63092;43.582;19.528;2022-12-29T16:06:39;6.20;99.90
73360;DHT22;63092;43.582;19.528;2022-12-29T16:09:16;6.30;99.90
73360;DHT22;63092;43.582;19.528;2022-12-29T16:11:50;6.30;99.90
73360;DHT22;63092;43.582;19.528;2022-12-29T16:14:24;6.30;99.90
73360;DHT22;63092;43.582;19.528;2022-12-29T16:16:57;6.30;99.90
73360;DHT22;63092;43.582;19.528;2022-12-29T16:19:36;6.40;99.90
73360;DHT22;63092;43.582;19.528;2022-12-29T16:22:50;6.40;99.90
73360;DHT22;63092;43.582;19.528;2022-12-29T16:24:50;6.50;99.90
73360;DHT22;63092;43.582;19.528;2022-12-29T16:27:25;6.50;99.90
73360;DHT22;63092;43.582;19.528;2022-12-29T16:29:54;6.50;99.90
73360;DHT22;63092;43.582;19.528;2022-12-29T16:34:50;6.60;99.90
73360;DHT22;63092;43.582;19.528;2022-12-29T16:37:32;6.50;99.90
73360;DHT22;63092;43.582;19.528;2022-12-29T16:42:56;6.60;99.90
73360;DHT22;63092;43.582;19.528;2022-12-29T16:50:33;6.60;99.90
73360;DHT22;63092;43.582;19.528;2022-12-29T16:53:00;6.60;99.90
73360;DHT22;63092;43.582;19.528;2022-12-29T16:55:27;6.50;99.90
73360;DHT22;63092;43.582;19.528;2022-12-29T16:57:54;6.50;99.90
73360;DHT22;63092;43.582;19.528;2022-12-29T17:00:23;6.50;99.90
73360;DHT22;63092;43.582;19.528;2022-12-29T17:02:50;6.50;99.90
73360;DHT22;63092;43.582;19.528;2022-12-29T17:05:18;6.50;99.90
73360;DHT22;63092;43.582;19.528;2022-12-29T17:07:45;6.50;99.90
73360;DHT22;63092;43.582;19.528;2022-12-29T17:10:11;6.50;99.90
73360;DHT22;63092;43.582;19.528;2022-12-29T17:12:39;6.40;99.90
73360;DHT22;63092;43.582;19.528;2022-12-29T17:17:42;6.30;99.90
73360;DHT22;63092;43.582;19.528;2022-12-29T17:20:28;6.30;99.90
73360;DHT22;63092;43.582;19.528;2022-12-29T17:22:54;6.50;99.90
73360;DHT22;63092;43.582;19.528;2022-12-29T17:25:30;6.50;99.90
73360;DHT22;63092;43.582;19.528;2022-12-29T17:28:02;6.60;99.90
73360;DHT22;63092;43.582;19.528;2022-12-29T17:30:32;6.60;99.90
73360;DHT22;63092;43.582;19.528;2022-12-29T17:35:26;6.60;99.90
73360;DHT22;63092;43.582;19.528;2022-12-29T17:37:53;6.40;99.90
73360;DHT22;63092;43.582;19.528;2022-12-29T17:40:21;6.40;99.90
73360;DHT22;63092;43.582;19.528;2022-12-29T17:42:49;6.50;99.90
73360;DHT22;63092;43.582;19.528;2022-12-29T17:45:17;6.60;99.90
73360;DHT22;63092;43.582;19.528;2022-12-29T17:47:43;6.60;99.90
73360;DHT22;63092;43.582;19.528;2022-12-29T17:50:18;6.40;99.90
73360;DHT22;63092;43.582;19.528;2022-12-29T17:52:49;6.40;99.90
73360;DHT22;63092;43.582;19.528;2022-12-29T17:55:18;6.40;99.90
73360;DHT22;63092;43.582;19.528;2022-12-29T17:57:45;6.30;99.90
73360;DHT22;63092;43.582;19.528;2022-12-29T18:00:19;6.30;99.90
73360;DHT22;63092;43.582;19.528;2022-12-29T18:02:45;6.30;99.90
73360;DHT22;63092;43.582;19.528;2022-12-29T18:05:29;6.30;99.90
73360;DHT22;63092;43.582;19.528;2022-12-29T18:07:57;6.40;99.90
73360;DHT22;63092;43.582;19.528;2022-12-29T18:10:25;6.40;99.90
73360;DHT22;63092;43.582;19.528;2022-12-29T18:12:54;6.60;99.90
73360;DHT22;63092;43.582;19.528;2022-12-29T18:15:26;6.50;99.90
73360;DHT22;63092;43.582;19.528;2022-12-29T18:18:00;6.50;99.90
73360;DHT22;63092;43.582;19.528;2022-12-29T18:20:28;6.60;99.90